Time;durP1;ratioP1;P1;durP2;ratioP2;P2;SDS_P1;SDS_P2;PMS_P1;PMS_P2;Temp;Humidity;BMP_temperature;BMP_pressure;BME280_temperature;BME280_humidity;BME280_pressure;Samples;Min_cycle;Max_cycle;Signal;HPM_P1;HPM_P2
2022/05/02 00:02:17;;;;;;;10.10;5.63;;;;;;;12.08;nan;-24154.41;4892054;29;20937;-69
2022/05/02 00:04:43;;;;;;;8.18;5.88;;;;;;;11.92;nan;-24149.91;4891904;29;20196;-69
2022/05/02 00:07:09;;;;;;;7.60;5.60;;;;;;;12.06;nan;-24153.84;4893078;29;20202;-69
2022/05/02 00:09:34;;;;;;;8.00;5.78;;;;;;;12.27;nan;-24159.75;4892129;29;20195;-69
2022/05/02 00:11:59;;;;;;;8.70;5.75;;;;;;;12.19;nan;-24157.50;4893379;29;20185;-70
2022/05/02 00:14:25;;;;;;;9.93;5.72;;;;;;;12.20;nan;-24157.78;4894739;29;20195;-70
2022/05/02 00:16:50;;;;;;;7.95;5.90;;;;;;;12.41;nan;-24163.56;4891013;29;20195;-69
2022/05/02 00:19:16;;;;;;;7.75;5.53;;;;;;;11.97;nan;-24151.16;4890404;29;20179;-70
2022/05/02 00:21:41;;;;;;;10.63;5.47;;;;;;;12.21;nan;-24157.91;4888986;29;20216;-70
2022/05/02 00:24:08;;;;;;;8.13;5.68;;;;;;;11.97;nan;-24151.16;4894513;29;20197;-69
2022/05/02 00:26:34;;;;;;;8.07;5.60;;;;;;;12.10;nan;-24154.97;4889540;29;20210;-69
2022/05/02 00:29:00;;;;;;;7.38;5.43;;;;;;;11.95;nan;-24150.88;4888538;29;20659;-70
2022/05/02 00:31:26;;;;;;;8.25;6.00;;;;;;;12.17;nan;-24156.78;4890962;29;20207;-69
2022/05/02 00:33:51;;;;;;;7.50;5.60;;;;;;;12.03;nan;-24153.00;4890717;29;20647;-68
2022/05/02 00:36:17;;;;;;;8.27;5.50;;;;;;;11.68;nan;-24143.28;4892604;29;20184;-69
2022/05/02 00:38:43;;;;;;;7.20;5.47;;;;;;;12.11;nan;-24155.25;4893350;29;20192;-70
2022/05/02 00:41:09;;;;;;;9.82;5.85;;;;;;;11.85;nan;-24147.94;4892297;29;20195;-69
2022/05/02 00:43:34;;;;;;;9.63;5.85;;;;;;;11.80;nan;-24146.66;4889083;29;20188;-69
2022/05/02 00:46:00;;;;;;;9.38;5.97;;;;;;;12.09;nan;-24154.69;4890304;29;20275;-70
2022/05/02 00:48:25;;;;;;;7.88;5.35;;;;;;;11.93;nan;-24150.19;4890218;29;20191;-69
2022/05/02 00:50:51;;;;;;;10.90;5.47;;;;;;;12.05;nan;-24153.56;4890044;29;20585;-69
2022/05/02 00:53:22;;;;;;;10.10;5.97;;;;;;;11.92;nan;-24150.03;4890929;29;20267;-68
2022/05/02 00:55:48;;;;;;;10.60;6.53;;;;;;;11.72;nan;-24144.25;4891065;29;20705;-70
2022/05/02 00:58:15;;;;;;;7.38;5.80;;;;;;;11.62;nan;-24141.44;4890664;29;20212;-69
2022/05/02 01:00:41;;;;;;;8.90;6.20;;;;;;;11.76;nan;-24145.41;4888084;29;20235;-70
2022/05/02 01:03:09;;;;;;;9.93;6.10;;;;;;;11.72;nan;-24144.25;4889077;29;20243;-71
2022/05/02 01:07:08;;;;;;;8.80;5.88;;;;;;;11.63;nan;-24141.72;4889831;29;20176;-68
2022/05/02 01:08:28;;;;;;;10.68;6.35;;;;;;;11.60;nan;-24140.88;4887746;29;20758;-69
2022/05/02 01:10:55;;;;;;;10.20;6.18;;;;;;;11.31;nan;-24132.84;4891283;29;20762;-69
2022/05/02 01:13:42;;;;;;;10.07;6.47;;;;;;;11.48;nan;-24137.78;4891343;29;20684;-69
2022/05/02 01:16:18;;;;;;;8.25;6.35;;;;;;;11.65;nan;-24142.44;4890642;29;20207;-70
2022/05/02 01:18:45;;;;;;;10.77;6.88;;;;;;;11.62;nan;-24141.59;4887138;29;20643;-70
2022/05/02 01:21:17;;;;;;;10.63;6.70;;;;;;;11.08;nan;-24126.50;4887526;29;20182;-70
2022/05/02 01:23:44;;;;;;;8.55;6.47;;;;;;;11.33;nan;-24133.56;4888108;29;20192;-70
2022/05/02 01:26:10;;;;;;;13.98;6.78;;;;;;;11.17;nan;-24128.91;4888598;29;20176;-70
2022/05/02 01:28:49;;;;;;;11.77;5.97;;;;;;;11.50;nan;-24138.34;4891360;29;20200;-69
2022/05/02 01:31:16;;;;;;;9.90;6.43;;;;;;;11.38;nan;-24134.97;4888646;29;20207;-71
2022/05/02 01:33:42;;;;;;;9.57;7.07;;;;;;;11.02;nan;-24124.81;4889143;29;20267;-68
2022/05/02 01:36:08;;;;;;;14.35;7.00;;;;;;;10.99;nan;-24124.13;4891196;29;20275;-70
2022/05/02 01:38:35;;;;;;;14.10;6.93;;;;;;;11.28;nan;-24132.00;4875279;29;20212;-70
2022/05/02 01:41:01;;;;;;;10.50;7.18;;;;;;;10.97;nan;-24123.41;4892498;29;20180;-71
2022/05/02 01:43:27;;;;;;;17.27;7.22;;;;;;;10.89;nan;-24121.28;4889034;29;20191;-69
2022/05/02 01:45:53;;;;;;;10.98;7.10;;;;;;;11.17;nan;-24128.91;4888327;29;20188;-69
2022/05/02 01:48:18;;;;;;;10.15;7.15;;;;;;;10.96;nan;-24123.13;4888179;29;20219;-69
2022/05/02 01:50:44;;;;;;;10.20;7.20;;;;;;;10.93;nan;-24122.28;4888650;29;20238;-70
2022/05/02 01:53:09;;;;;;;11.63;7.37;;;;;;;11.19;nan;-24129.59;4889017;29;20761;-69
2022/05/02 01:55:35;;;;;;;12.40;7.13;;;;;;;11.17;nan;-24129.03;4889587;29;20566;-70
2022/05/02 01:58:00;;;;;;;11.30;7.50;;;;;;;11.11;nan;-24127.34;4888777;29;20216;-70
2022/05/02 02:00:25;;;;;;;10.63;7.23;;;;;;;10.98;nan;-24123.69;4885925;29;20188;-70
2022/05/02 02:02:51;;;;;;;11.37;7.40;;;;;;;11.23;nan;-24130.75;4886362;29;20763;-70
2022/05/02 02:08:00;;;;;;;13.33;7.83;;;;;;;10.92;nan;-24122.13;4892339;29;20191;-70
2022/05/02 02:10:26;;;;;;;11.97;7.73;;;;;;;10.64;nan;-24114.25;4896862;29;20603;-72
2022/05/02 02:13:05;;;;;;;11.60;8.10;;;;;;;10.79;nan;-24118.34;4898904;29;20239;-70
2022/05/02 02:15:31;;;;;;;10.20;7.77;;;;;;;10.77;nan;-24117.78;4908625;29;20571;-70
2022/05/02 02:18:25;;;;;;;10.93;7.83;;;;;;;10.95;nan;-24122.84;4896596;29;20192;-71
2022/05/02 02:21:14;;;;;;;12.40;8.37;;;;;;;10.80;nan;-24118.75;4894768;29;20190;-71
2022/05/02 02:23:42;;;;;;;14.13;8.50;;;;;;;10.70;nan;-24115.78;4895240;29;20195;-69
2022/05/02 02:26:07;;;;;;;13.40;8.70;;;;;;;10.61;nan;-24113.41;4914636;29;20251;-69
2022/05/02 02:28:33;;;;;;;13.43;9.18;;;;;;;10.61;nan;-24113.53;4897907;29;20188;-68
2022/05/02 02:30:58;;;;;;;12.27;8.83;;;;;;;9.83;nan;-24091.50;4890985;29;20610;-69
2022/05/02 02:33:24;;;;;;;13.07;8.93;;;;;;;10.75;nan;-24117.19;4888908;29;20191;-69
2022/05/02 02:35:49;;;;;;;13.05;8.93;;;;;;;10.78;nan;-24118.19;4892269;29;20284;-69
2022/05/02 02:38:15;;;;;;;13.57;9.40;;;;;;;10.61;nan;-24113.53;4888715;29;20262;-70
2022/05/02 02:40:41;;;;;;;11.77;8.60;;;;;;;10.50;nan;-24110.28;4894667;29;20655;-69
2022/05/02 02:43:07;;;;;;;14.70;9.15;;;;;;;10.79;nan;-24118.34;4893234;29;20184;-69
2022/05/02 02:45:33;;;;;;;16.20;8.98;;;;;;;10.70;nan;-24115.78;4890852;29;20635;-70
2022/05/02 02:47:58;;;;;;;13.20;9.07;;;;;;;10.66;nan;-24114.66;4890939;29;20206;-69
2022/05/02 02:50:23;;;;;;;15.10;9.60;;;;;;;10.51;nan;-24110.56;4890626;29;20236;-70
2022/05/02 02:52:49;;;;;;;13.73;9.83;;;;;;;10.46;nan;-24109.16;4890818;29;20192;-70
2022/05/02 02:55:15;;;;;;;14.03;9.10;;;;;;;10.72;nan;-24116.50;4890795;29;20203;-70
2022/05/02 02:57:40;;;;;;;14.57;9.13;;;;;;;10.56;nan;-24111.97;4891500;29;20218;-70
2022/05/02 03:00:09;;;;;;;14.27;9.50;;;;;;;10.52;nan;-24110.84;4891873;29;20195;-69
2022/05/02 03:02:40;;;;;;;17.60;8.57;;;;;;;10.34;nan;-24105.91;4891091;29;20292;-69
2022/05/02 03:07:50;;;;;;;14.40;8.87;;;;;;;9.68;nan;-24087.41;4890012;29;20581;-69
2022/05/02 03:10:15;;;;;;;14.60;9.83;;;;;;;9.74;nan;-24089.09;4891950;29;20207;-70
2022/05/02 03:12:41;;;;;;;15.47;9.63;;;;;;;9.94;nan;-24094.75;4889680;29;20770;-69
2022/05/02 03:15:07;;;;;;;15.13;10.47;;;;;;;10.09;nan;-24099.00;4889811;29;20321;-68
2022/05/02 03:17:32;;;;;;;15.17;9.83;;;;;;;9.75;nan;-24089.53;4889153;29;20203;-69
2022/05/02 03:19:58;;;;;;;16.43;9.37;;;;;;;9.93;nan;-24094.34;4890761;29;20196;-70
2022/05/02 03:22:23;;;;;;;16.73;9.50;;;;;;;10.00;nan;-24096.44;4889849;29;20184;-69
2022/05/02 03:24:49;;;;;;;13.63;8.80;;;;;;;9.74;nan;-24089.25;4892001;29;20187;-70
2022/05/02 03:27:14;;;;;;;13.13;8.97;;;;;;;9.94;nan;-24094.63;4892108;29;20196;-70
2022/05/02 03:29:39;;;;;;;14.17;9.67;;;;;;;10.14;nan;-24100.25;4890396;29;20192;-69
2022/05/02 03:32:05;;;;;;;15.37;9.80;;;;;;;10.42;nan;-24108.16;4890438;29;20180;-69
2022/05/02 03:34:31;;;;;;;18.07;10.30;;;;;;;10.77;nan;-24117.91;4893465;29;20671;-69
2022/05/02 03:36:56;;;;;;;16.33;9.43;;;;;;;10.88;nan;-24120.88;4893981;29;20591;-70
2022/05/02 03:39:22;;;;;;;13.25;9.52;;;;;;;11.20;nan;-24129.75;4892765;29;20194;-69
2022/05/02 03:41:49;;;;;;;12.20;8.38;;;;;;;11.79;nan;-24146.38;4892056;29;20219;-70
2022/05/02 03:44:14;;;;;;;17.70;8.88;;;;;;;12.06;nan;-24153.84;4890908;29;20176;-69
2022/05/02 03:46:40;;;;;;;13.23;8.65;;;;;;;12.76;nan;-24173.25;4903870;29;20195;-70
2022/05/02 03:49:05;;;;;;;15.05;9.00;;;;;;;13.16;nan;-24184.50;4890211;29;20565;-70
2022/05/02 03:51:34;;;;;;;12.20;8.02;;;;;;;13.86;nan;-24203.88;4895155;29;20318;-69
2022/05/02 03:54:13;;;;;;;12.07;7.30;;;;;;;14.91;nan;-24232.94;4893254;29;20204;-74
2022/05/02 03:56:39;;;;;;;12.25;7.10;;;;;;;15.42;nan;-24247.06;4893195;29;20664;-69
2022/05/02 03:59:04;;;;;;;14.77;7.32;;;;;;;15.56;nan;-24251.00;4890345;29;20191;-69
2022/05/02 04:01:31;;;;;;;10.77;7.38;;;;;;;16.09;nan;-24265.56;4893729;29;20227;-70
2022/05/02 04:03:57;;;;;;;9.57;7.03;;;;;;;16.59;nan;-24279.41;4893542;29;20195;-70
2022/05/02 04:06:22;;;;;;;10.65;7.32;;;;;;;17.23;nan;-24297.13;4892645;29;20191;-71
2022/05/02 04:08:47;;;;;;;10.38;6.88;;;;;;;17.60;nan;-24307.47;4906870;29;20667;-68
2022/05/02 04:11:13;;;;;;;9.18;6.53;;;;;;;17.81;nan;-24313.19;4890446;29;20203;-68
2022/05/02 04:13:38;;;;;;;12.52;7.22;;;;;;;18.14;nan;-24322.25;4892703;29;20223;-73
2022/05/02 04:16:04;;;;;;;11.20;7.05;;;;;;;18.40;nan;-24329.34;4911032;29;20212;-74
2022/05/02 04:18:29;;;;;;;10.52;7.20;;;;;;;18.87;nan;-24342.31;4897065;29;20183;-73
2022/05/02 04:20:55;;;;;;;12.25;6.65;;;;;;;19.27;nan;-24353.44;4897801;29;20188;-72
2022/05/02 04:23:20;;;;;;;10.10;6.57;;;;;;;19.40;nan;-24357.06;4894795;29;20271;-73
2022/05/02 04:25:46;;;;;;;12.23;6.45;;;;;;;18.88;nan;-24342.72;4894473;29;20274;-72
2022/05/02 04:28:12;;;;;;;9.73;6.65;;;;;;;18.36;nan;-24328.38;4895125;29;20187;-73
2022/05/02 04:30:38;;;;;;;12.18;6.97;;;;;;;17.73;nan;-24310.94;4894698;29;20259;-68
2022/05/02 04:33:03;;;;;;;12.15;6.93;;;;;;;17.36;nan;-24300.75;4892569;29;20690;-70
2022/05/02 04:35:29;;;;;;;11.05;7.00;;;;;;;17.51;nan;-24304.81;4892860;29;20258;-70
2022/05/02 04:37:54;;;;;;;13.18;7.20;;;;;;;17.54;nan;-24305.78;4894252;29;20187;-68
2022/05/02 04:40:20;;;;;;;11.45;7.78;;;;;;;16.96;nan;-24289.59;4891247;29;20184;-68
2022/05/02 04:42:45;;;;;;;11.35;8.20;;;;;;;16.38;nan;-24273.50;4893686;29;20283;-68
2022/05/02 04:45:11;;;;;;;12.00;8.05;;;;;;;15.63;nan;-24252.94;4892513;29;20183;-68
2022/05/02 04:47:36;;;;;;;11.48;8.00;;;;;;;15.50;nan;-24249.31;4905014;29;21175;-69
2022/05/02 04:50:02;;;;;;;13.63;7.88;;;;;;;15.33;nan;-24244.69;4889587;29;20283;-68
2022/05/02 04:52:27;;;;;;;13.93;8.15;;;;;;;15.64;nan;-24253.09;4895288;29;20668;-69
2022/05/02 04:54:53;;;;;;;11.68;8.00;;;;;;;16.22;nan;-24269.19;4892621;29;20612;-68
2022/05/02 04:57:18;;;;;;;11.88;7.80;;;;;;;16.64;nan;-24280.94;4894399;29;20180;-70
2022/05/02 04:59:44;;;;;;;16.05;8.15;;;;;;;17.46;nan;-24303.41;4892305;29;20188;-68
2022/05/02 05:02:09;;;;;;;12.70;7.13;;;;;;;17.73;nan;-24310.81;4890514;29;20306;-68
2022/05/02 05:04:35;;;;;;;12.52;8.07;;;;;;;17.82;nan;-24313.31;4891596;29;20204;-67
2022/05/02 05:07:01;;;;;;;11.20;7.78;;;;;;;18.23;nan;-24324.59;4892932;29;20291;-70
2022/05/02 05:09:26;;;;;;;10.30;7.20;;;;;;;17.43;nan;-24302.72;4893175;29;20624;-70
2022/05/02 05:12:07;;;;;;;11.05;7.18;;;;;;;17.21;nan;-24296.56;4895426;29;20215;-70
2022/05/02 05:18:44;;;;;;;9.30;6.07;;;;;;;16.40;nan;-24274.22;4875506;29;20342;-69
2022/05/02 05:21:28;;;;;;;14.02;6.15;;;;;;;15.96;nan;-24261.91;4895609;29;20275;-70
2022/05/02 05:24:12;;;;;;;8.48;5.90;;;;;;;16.43;nan;-24275.06;4895918;29;20184;-70
2022/05/02 05:26:57;;;;;;;9.93;6.05;;;;;;;15.77;nan;-24256.72;4895337;29;20236;-69
2022/05/02 05:29:33;;;;;;;7.70;6.00;;;;;;;13.65;nan;-24198.00;4895451;29;20176;-69
2022/05/02 05:32:17;;;;;;;10.45;6.57;;;;;;;16.08;nan;-24265.28;4888002;29;20691;-69
2022/05/02 05:35:02;;;;;;;8.20;5.85;;;;;;;15.89;nan;-24260.22;4895875;29;20204;-69
2022/05/02 05:37:30;;;;;;;8.90;5.80;;;;;;;15.76;nan;-24256.59;4895657;29;20853;-69
2022/05/02 05:40:09;;;;;;;8.73;6.00;;;;;;;15.77;nan;-24256.88;4895992;29;20282;-69
2022/05/02 05:43:02;;;;;;;8.63;6.10;;;;;;;15.94;nan;-24261.34;4900029;29;20251;-70
2022/05/02 05:45:52;;;;;;;9.38;6.35;;;;;;;15.92;nan;-24260.94;4899828;29;20222;-69
2022/05/02 05:48:44;;;;;;;7.85;5.85;;;;;;;16.15;nan;-24267.38;4893304;29;20188;-70
2022/05/02 05:51:10;;;;;;;8.00;5.65;;;;;;;15.84;nan;-24258.69;4897249;29;20204;-69
2022/05/02 05:53:54;;;;;;;9.00;5.88;;;;;;;15.55;nan;-24250.56;4897696;29;20214;-70
2022/05/02 05:56:34;;;;;;;6.72;5.80;;;;;;;15.61;nan;-24252.41;4897413;29;20212;-69
2022/05/02 05:59:12;;;;;;;8.85;6.22;;;;;;;15.66;nan;-24253.78;4897743;29;20191;-69
2022/05/02 06:01:56;;;;;;;7.07;5.13;;;;;;;15.60;nan;-24252.13;4895725;29;20220;-68
2022/05/02 06:04:27;;;;;;;7.07;5.55;;;;;;;15.36;nan;-24245.53;4896225;29;20188;-70
2022/05/02 06:06:54;;;;;;;8.50;5.00;;;;;;;15.18;nan;-24240.50;4897436;29;20172;-68
2022/05/02 06:09:20;;;;;;;6.47;5.60;;;;;;;15.07;nan;-24237.28;4899608;29;20271;-69
2022/05/02 06:11:47;;;;;;;7.00;5.45;;;;;;;15.27;nan;-24243.00;4900035;29;20204;-69
2022/05/02 06:14:14;;;;;;;9.45;5.80;;;;;;;15.43;nan;-24247.34;4898536;29;20248;-69
2022/05/02 06:19:48;;;;;;;7.93;5.40;;;;;;;15.42;nan;-24247.06;4857028;29;20898;-71
2022/05/02 06:22:17;;;;;;;10.00;5.80;;;;;;;15.47;nan;-24248.63;4889425;29;20207;-69
2022/05/02 06:24:45;;;;;;;8.88;5.90;;;;;;;15.49;nan;-24249.03;4897828;29;20191;-71
2022/05/02 06:27:11;;;;;;;9.57;6.72;;;;;;;15.99;nan;-24262.88;4909400;29;20651;-69
2022/05/02 06:29:39;;;;;;;7.68;6.07;;;;;;;15.69;nan;-24254.63;4875948;29;20349;-69
2022/05/02 06:32:09;;;;;;;9.45;5.70;;;;;;;15.84;nan;-24258.84;4896031;29;20721;-69
2022/05/02 06:34:35;;;;;;;7.75;5.80;;;;;;;14.69;nan;-24226.91;4899100;29;20176;-68
2022/05/02 06:37:28;;;;;;;11.90;6.63;;;;;;;14.81;nan;-24230.25;4895046;29;20682;-68
2022/05/02 06:40:15;;;;;;;8.25;6.00;;;;;;;15.27;nan;-24242.88;4892605;29;20600;-69
2022/05/02 06:42:59;;;;;;;9.45;6.68;;;;;;;15.46;nan;-24248.34;4895881;29;20188;-67
2022/05/02 06:45:42;;;;;;;11.43;6.05;;;;;;;15.50;nan;-24249.31;4898192;29;20195;-68
2022/05/02 06:48:10;;;;;;;9.00;6.18;;;;;;;15.77;nan;-24256.88;4898380;29;20687;-68
2022/05/02 06:50:39;;;;;;;10.25;6.20;;;;;;;15.86;nan;-24259.25;4898353;29;21069;-69
2022/05/02 06:53:41;;;;;;;8.88;6.25;;;;;;;15.66;nan;-24253.66;4897723;29;20239;-69
2022/05/02 06:56:42;;;;;;;7.40;5.88;;;;;;;15.39;nan;-24246.38;4914068;29;20195;-68
2022/05/02 06:59:25;;;;;;;8.38;6.30;;;;;;;15.36;nan;-24245.53;4915309;29;20611;-67
2022/05/02 07:02:20;;;;;;;9.20;6.40;;;;;;;15.49;nan;-24249.16;4917350;29;20305;-68
2022/05/02 07:04:50;;;;;;;8.25;5.80;;;;;;;14.95;nan;-24234.03;4901984;29;20699;-68
2022/05/02 07:07:35;;;;;;;9.27;6.25;;;;;;;15.51;nan;-24249.47;4904462;29;21014;-69
2022/05/02 07:10:06;;;;;;;8.25;5.35;;;;;;;15.57;nan;-24251.28;4911583;29;20336;-70
2022/05/02 07:12:34;;;;;;;10.45;5.63;;;;;;;15.51;nan;-24249.47;4894836;29;20179;-69
2022/05/02 07:15:03;;;;;;;7.05;5.78;;;;;;;16.00;nan;-24263.16;4889434;29;20271;-69
2022/05/02 07:17:44;;;;;;;7.25;5.65;;;;;;;15.73;nan;-24255.75;4903866;29;20196;-69
2022/05/02 07:20:27;;;;;;;7.47;5.47;;;;;;;15.71;nan;-24255.06;4905657;29;20255;-68
2022/05/02 07:23:07;;;;;;;9.27;5.45;;;;;;;16.19;nan;-24268.34;4892357;29;20195;-69
2022/05/02 07:25:37;;;;;;;8.38;5.30;;;;;;;16.08;nan;-24265.41;4891413;29;20192;-69
2022/05/02 07:28:40;;;;;;;8.75;5.50;;;;;;;15.96;nan;-24262.06;4890093;29;20184;-69
2022/05/02 07:31:08;;;;;;;6.95;4.97;;;;;;;15.76;nan;-24256.59;4904620;29;20204;-69
2022/05/02 07:33:38;;;;;;;8.73;5.22;;;;;;;16.04;nan;-24264.28;4890562;29;20177;-70
2022/05/02 07:36:05;;;;;;;5.70;4.63;;;;;;;15.93;nan;-24261.22;4890025;29;20953;-68
2022/05/02 07:38:35;;;;;;;8.68;4.80;;;;;;;15.93;nan;-24261.06;4905123;29;20578;-69
2022/05/02 07:43:57;;;;;;;5.45;4.75;;;;;;;15.76;nan;-24256.59;4890935;29;20222;-70
2022/05/02 07:46:29;;;;;;;7.40;5.07;;;;;;;15.57;nan;-24251.28;4890327;29;20183;-70
2022/05/02 07:48:57;;;;;;;5.35;4.50;;;;;;;16.14;nan;-24267.09;4892391;29;20195;-70
2022/05/02 07:51:24;;;;;;;9.57;5.28;;;;;;;16.18;nan;-24268.06;4905865;29;20204;-69
2022/05/02 07:53:51;;;;;;;7.55;5.05;;;;;;;16.22;nan;-24269.19;4891275;29;20648;-68
2022/05/02 07:56:21;;;;;;;6.30;4.88;;;;;;;16.42;nan;-24274.78;4891909;29;20327;-69
2022/05/02 07:58:51;;;;;;;7.15;4.97;;;;;;;16.22;nan;-24269.31;4889461;29;20216;-69
2022/05/02 08:01:18;;;;;;;6.10;4.75;;;;;;;16.13;nan;-24266.81;4890521;29;20267;-68
2022/05/02 08:03:43;;;;;;;8.88;5.00;;;;;;;16.66;nan;-24281.34;4889913;29;20252;-70
2022/05/02 08:06:53;;;;;;;7.13;4.88;;;;;;;16.45;nan;-24275.47;4891126;29;20749;-69
2022/05/02 08:09:49;;;;;;;6.57;5.03;;;;;;;16.17;nan;-24267.94;4890625;29;20188;-69
2022/05/02 08:12:14;;;;;;;7.35;5.57;;;;;;;16.30;nan;-24271.56;4890498;29;20203;-68
2022/05/02 08:14:51;;;;;;;8.45;5.10;;;;;;;16.23;nan;-24269.47;4889204;29;20663;-68
2022/05/02 08:17:38;;;;;;;8.63;6.03;;;;;;;16.27;nan;-24270.72;4888310;29;20286;-69
2022/05/02 08:20:07;;;;;;;7.35;5.25;;;;;;;16.42;nan;-24274.78;4888699;29;20534;-70
2022/05/02 08:28:53;;;;;;;8.77;5.07;;;;;;;16.80;nan;-24285.25;4889849;29;20211;-69
2022/05/02 08:31:40;;;;;;;6.22;4.90;;;;;;;16.91;nan;-24288.19;4903658;29;20246;-68
2022/05/02 08:34:19;;;;;;;5.75;4.57;;;;;;;17.08;nan;-24293.09;4874061;29;20176;-68
2022/05/02 08:37:16;;;;;;;6.25;4.25;;;;;;;17.56;nan;-24306.19;4889255;29;20184;-70
2022/05/02 08:40:04;;;;;;;4.70;3.90;;;;;;;16.88;nan;-24287.34;4880012;29;20212;-72
2022/05/02 08:42:57;;;;;;;5.82;3.95;;;;;;;17.46;nan;-24303.41;4890587;29;20545;-70
2022/05/02 08:46:00;;;;;;;5.47;3.42;;;;;;;17.60;nan;-24307.47;4889982;29;20188;-65
2022/05/02 08:52:16;;;;;;;4.85;3.65;;;;;;;16.94;nan;-24289.03;4886834;29;20215;-65
2022/05/02 08:55:18;;;;;;;4.90;3.53;;;;;;;17.41;nan;-24302.16;4889410;29;20192;-65
2022/05/02 08:58:13;;;;;;;4.50;3.45;;;;;;;17.97;nan;-24317.63;4887311;29;20230;-64
2022/05/02 09:01:36;;;;;;;6.55;3.67;;;;;;;18.26;nan;-24325.59;4888927;29;20325;-64
2022/05/02 09:04:04;;;;;;;4.43;3.58;;;;;;;18.87;nan;-24342.44;4866686;29;20703;-65
2022/05/02 09:06:32;;;;;;;5.35;4.05;;;;;;;18.51;nan;-24332.56;4867602;29;20184;-64
2022/05/02 09:09:26;;;;;;;6.45;3.58;;;;;;;18.49;nan;-24332.00;4861084;29;20675;-63
2022/05/02 09:11:52;;;;;;;5.72;3.78;;;;;;;18.92;nan;-24343.69;4889506;29;20271;-64
2022/05/02 09:14:37;;;;;;;4.32;3.72;;;;;;;19.54;nan;-24360.81;4887716;29;20192;-64
2022/05/02 09:17:40;;;;;;;7.40;4.00;;;;;;;20.12;nan;-24376.78;4892637;29;20303;-65
2022/05/02 09:20:11;;;;;;;7.22;4.05;;;;;;;20.02;nan;-24374.00;4892098;29;20568;-65
2022/05/02 09:23:02;;;;;;;7.10;4.25;;;;;;;19.96;nan;-24372.34;4891692;29;20255;-66
2022/05/02 09:25:58;;;;;;;6.93;4.20;;;;;;;19.90;nan;-24370.53;4892814;29;20677;-66
2022/05/02 09:28:32;;;;;;;6.50;4.10;;;;;;;19.76;nan;-24366.94;4896185;29;20191;-65
2022/05/02 09:31:16;;;;;;;6.35;4.00;;;;;;;20.20;nan;-24379.00;4896138;29;20207;-65
2022/05/02 09:34:14;;;;;;;6.43;4.05;;;;;;;19.90;nan;-24370.53;4900406;29;20183;-64
2022/05/02 09:36:43;;;;;;;5.00;3.75;;;;;;;20.18;nan;-24378.47;4898984;29;20731;-65
2022/05/02 09:39:20;;;;;;;4.75;3.60;;;;;;;19.52;nan;-24360.13;4896331;29;20183;-64
2022/05/02 09:42:07;;;;;;;5.65;3.70;;;;;;;20.10;nan;-24376.09;4896675;29;20207;-67
2022/05/02 09:50:54;;;;;;;6.18;3.58;;;;;;;19.99;nan;-24373.03;4898757;29;20250;-65
2022/05/02 09:53:29;;;;;;;4.43;3.42;;;;;;;20.47;nan;-24386.38;4912332;29;20220;-64
2022/05/02 09:59:10;;;;;;;4.15;3.38;;;;;;;20.56;nan;-24388.88;4896665;29;20218;-65
2022/05/02 10:01:46;;;;;;;8.55;3.40;;;;;;;19.77;nan;-24367.06;4899816;29;20240;-63
2022/05/02 10:04:35;;;;;;;4.65;3.15;;;;;;;20.02;nan;-24374.00;4881323;29;20278;-66
2022/05/02 10:07:06;;;;;;;4.90;3.20;;;;;;;20.48;nan;-24386.66;4896168;29;20750;-63
2022/05/02 10:09:49;;;;;;;5.38;2.60;;;;;;;20.66;nan;-24391.66;4898217;29;20184;-64
2022/05/02 10:12:34;;;;;;;4.80;3.35;;;;;;;19.72;nan;-24365.69;4897855;29;20301;-63
2022/05/02 10:15:10;;;;;;;4.35;3.15;;;;;;;19.75;nan;-24366.50;4900407;29;20342;-64
2022/05/02 10:18:02;;;;;;;4.13;3.10;;;;;;;19.42;nan;-24357.59;4899315;29;20183;-62
2022/05/02 10:20:42;;;;;;;4.03;2.90;;;;;;;19.14;nan;-24349.69;4902374;29;20192;-65
2022/05/02 10:23:16;;;;;;;5.60;3.42;;;;;;;19.27;nan;-24353.28;4898247;29;20183;-64
2022/05/02 10:25:58;;;;;;;4.60;3.50;;;;;;;18.99;nan;-24345.66;4899941;29;20187;-68
2022/05/02 10:28:29;;;;;;;4.22;3.50;;;;;;;18.69;nan;-24337.44;4896550;29;20219;-67
2022/05/02 10:31:13;;;;;;;5.18;3.50;;;;;;;18.49;nan;-24332.00;4894292;29;20211;-67
2022/05/02 10:33:52;;;;;;;4.93;3.40;;;;;;;18.52;nan;-24332.69;4897534;29;20192;-70
2022/05/02 10:36:27;;;;;;;6.35;3.40;;;;;;;18.21;nan;-24324.06;4896257;29;20190;-67
2022/05/02 10:38:55;;;;;;;4.05;3.22;;;;;;;17.59;nan;-24307.19;4894597;29;20262;-69
2022/05/02 10:41:29;;;;;;;5.45;2.97;;;;;;;18.62;nan;-24335.47;4897160;29;20231;-70
2022/05/02 10:44:05;;;;;;;4.10;3.13;;;;;;;18.64;nan;-24335.91;4879194;29;20184;-68
2022/05/02 10:46:32;;;;;;;4.28;2.85;;;;;;;18.79;nan;-24340.22;4896098;29;20183;-66
2022/05/02 10:49:13;;;;;;;3.60;2.67;;;;;;;18.64;nan;-24336.03;4895172;29;20586;-67
2022/05/02 10:52:13;;;;;;;3.45;2.97;;;;;;;18.70;nan;-24337.56;4894351;29;20208;-67
2022/05/02 10:54:55;;;;;;;4.88;3.17;;;;;;;18.60;nan;-24334.78;4897568;29;20763;-67
2022/05/02 10:57:45;;;;;;;4.38;2.97;;;;;;;19.20;nan;-24351.47;4896913;29;20223;-67
2022/05/02 11:00:12;;;;;;;3.70;3.08;;;;;;;19.37;nan;-24356.22;4895175;29;20202;-66
2022/05/02 11:02:59;;;;;;;4.20;3.10;;;;;;;19.70;nan;-24365.25;4896067;29;20188;-65
2022/05/02 11:05:54;;;;;;;4.10;2.88;;;;;;;19.60;nan;-24362.47;4909039;29;20196;-67
2022/05/02 11:08:29;;;;;;;5.25;2.72;;;;;;;20.27;nan;-24380.97;4896801;29;20200;-67
2022/05/02 11:11:03;;;;;;;5.97;3.20;;;;;;;19.33;nan;-24355.09;4893653;29;20243;-67
2022/05/02 11:13:28;;;;;;;4.10;3.28;;;;;;;20.27;nan;-24380.97;4894848;29;20182;-67
2022/05/02 11:16:11;;;;;;;3.92;3.10;;;;;;;20.91;nan;-24398.31;4894227;29;20192;-68
2022/05/02 11:22:08;;;;;;;6.22;3.40;;;;;;;20.25;nan;-24380.25;4897502;29;20284;-67
2022/05/02 11:24:43;;;;;;;3.90;3.40;;;;;;;20.40;nan;-24384.28;4884409;29;20202;-66
2022/05/02 11:27:36;;;;;;;8.25;3.72;;;;;;;20.81;nan;-24395.66;4896201;29;20190;-68
2022/05/02 11:30:06;;;;;;;3.90;3.50;;;;;;;21.45;nan;-24413.28;4895206;29;20366;-68
2022/05/02 11:32:57;;;;;;;6.05;3.90;;;;;;;21.76;nan;-24421.59;4909677;29;20267;-67
2022/05/02 11:35:28;;;;;;;4.65;3.20;;;;;;;21.91;nan;-24425.91;4896340;29;20659;-68
2022/05/02 11:38:07;;;;;;;3.92;3.30;;;;;;;22.14;nan;-24432.13;4895615;29;20400;-68
2022/05/02 11:40:41;;;;;;;4.05;3.53;;;;;;;22.10;nan;-24430.88;4893528;29;20659;-67
2022/05/02 11:43:09;;;;;;;5.35;3.50;;;;;;;21.99;nan;-24428.13;4897328;29;20184;-67
2022/05/02 11:45:41;;;;;;;6.88;3.50;;;;;;;22.24;nan;-24434.75;4895906;29;20180;-67
2022/05/02 11:49:02;;;;;;;6.70;4.10;;;;;;;22.15;nan;-24432.41;4892585;29;20191;-68
2022/05/02 11:51:44;;;;;;;3.95;3.55;;;;;;;22.33;nan;-24437.25;4889458;29;20212;-68
2022/05/02 11:54:32;;;;;;;6.63;4.00;;;;;;;22.03;nan;-24429.22;4892670;29;20199;-67
2022/05/02 11:57:03;;;;;;;7.35;3.83;;;;;;;22.25;nan;-24435.03;4892558;29;20218;-68
2022/05/02 11:59:53;;;;;;;3.90;3.50;;;;;;;22.34;nan;-24437.53;4910767;29;20188;-67
2022/05/02 12:02:34;;;;;;;4.55;3.90;;;;;;;22.35;nan;-24437.94;4890390;29;20246;-67
2022/05/02 12:05:10;;;;;;;4.47;3.65;;;;;;;22.40;nan;-24439.19;4897055;29;20198;-67
2022/05/02 12:07:41;;;;;;;5.07;4.05;;;;;;;22.47;nan;-24441.25;4906155;29;20219;-67
2022/05/02 12:10:09;;;;;;;4.68;3.83;;;;;;;22.16;nan;-24432.69;4896976;29;20188;-69
2022/05/02 12:12:36;;;;;;;5.10;3.60;;;;;;;23.00;nan;-24455.50;4894158;29;20188;-68
2022/05/02 12:15:07;;;;;;;4.95;3.80;;;;;;;21.91;nan;-24425.91;4895424;29;20183;-68
2022/05/02 12:17:32;;;;;;;4.55;3.85;;;;;;;22.09;nan;-24430.59;4894606;29;20579;-67
2022/05/02 12:19:58;;;;;;;4.50;3.80;;;;;;;21.43;nan;-24412.59;4894752;29;20744;-68
2022/05/02 12:22:27;;;;;;;8.13;4.10;;;;;;;21.74;nan;-24421.19;4895754;29;20191;-67
2022/05/02 12:24:54;;;;;;;6.70;4.07;;;;;;;21.40;nan;-24411.91;4907419;29;20227;-67
2022/05/02 12:27:22;;;;;;;7.97;4.10;;;;;;;20.99;nan;-24400.53;4896395;29;20644;-69
2022/05/02 12:29:57;;;;;;;5.03;4.50;;;;;;;20.70;nan;-24392.63;4895709;29;20231;-68
2022/05/02 12:32:26;;;;;;;5.53;4.50;;;;;;;20.50;nan;-24387.06;4908881;29;20200;-69
2022/05/02 12:34:55;;;;;;;5.25;4.13;;;;;;;20.21;nan;-24379.16;4894473;29;20180;-68
2022/05/02 12:37:33;;;;;;;8.63;4.45;;;;;;;20.80;nan;-24395.25;4894451;29;20184;-68
2022/05/02 12:40:12;;;;;;;5.80;4.50;;;;;;;20.46;nan;-24385.97;4892893;29;20188;-69
2022/05/02 12:43:04;;;;;;;5.57;4.63;;;;;;;20.45;nan;-24385.69;4891975;29;20203;-69
2022/05/02 12:45:46;;;;;;;4.40;4.00;;;;;;;20.23;nan;-24379.84;4893254;29;20184;-69
2022/05/02 12:48:29;;;;;;;5.97;4.75;;;;;;;19.92;nan;-24371.22;4893382;29;20611;-68